sensor_id;sensor_type;location;lat;lon;timestamp;pressure;altitude;pressure_sealevel;temperature;humidity
77799;BME280;66989;50.426;15.352;2023-04-25T00:01:46;97402.38;;;8.89;74.47
77799;BME280;66989;50.426;15.352;2023-04-25T00:04:13;97402.63;;;8.86;74.48
77799;BME280;66989;50.426;15.352;2023-04-25T00:06:38;97399.28;;;8.84;74.68
77799;BME280;66989;50.426;15.352;2023-04-25T00:09:05;97408.16;;;8.83;74.93
77799;BME280;66989;50.426;15.352;2023-04-25T00:11:33;97404.78;;;8.81;75.22
77799;BME280;66989;50.426;15.352;2023-04-25T00:13:58;97400.63;;;8.78;75.35
77799;BME280;66989;50.426;15.352;2023-04-25T00:16:25;97399.81;;;8.77;75.40
77799;BME280;66989;50.426;15.352;2023-04-25T00:18:50;97399.91;;;8.76;75.21
77799;BME280;66989;50.426;15.352;2023-04-25T00:21:19;97406.13;;;8.75;75.25
77799;BME280;66989;50.426;15.352;2023-04-25T00:23:45;97399.22;;;8.74;75.54
77799;BME280;66989;50.426;15.352;2023-04-25T00:26:11;97405.44;;;8.73;75.43
77799;BME280;66989;50.426;15.352;2023-04-25T00:28:37;97405.69;;;8.70;75.52
77799;BME280;66989;50.426;15.352;2023-04-25T00:31:03;97403.03;;;8.70;75.35
77799;BME280;66989;50.426;15.352;2023-04-25T00:33:28;97406.63;;;8.69;75.08
77799;BME280;66989;50.426;15.352;2023-04-25T00:35:54;97398.88;;;8.67;75.23
77799;BME280;66989;50.426;15.352;2023-04-25T00:38:20;97395.66;;;8.64;75.60
77799;BME280;66989;50.426;15.352;2023-04-25T00:40:45;97394.00;;;8.63;76.10
77799;BME280;66989;50.426;15.352;2023-04-25T00:43:11;97396.75;;;8.61;76.24
77799;BME280;66989;50.426;15.352;2023-04-25T00:45:38;97402.13;;;8.60;76.20
77799;BME280;66989;50.426;15.352;2023-04-25T00:48:04;97403.78;;;8.61;76.43
77799;BME280;66989;50.426;15.352;2023-04-25T00:50:30;97412.63;;;8.60;76.64
77799;BME280;66989;50.426;15.352;2023-04-25T00:52:55;97405.72;;;8.59;76.66
77799;BME280;66989;50.426;15.352;2023-04-25T00:55:21;97402.41;;;8.57;77.23
77799;BME280;66989;50.426;15.352;2023-04-25T00:57:47;97409.41;;;8.56;77.24
77799;BME280;66989;50.426;15.352;2023-04-25T01:00:13;97409.41;;;8.56;77.01
77799;BME280;66989;50.426;15.352;2023-04-25T01:02:40;97411.09;;;8.57;77.05
77799;BME280;66989;50.426;15.352;2023-04-25T01:05:07;97411.09;;;8.57;77.29
77799;BME280;66989;50.426;15.352;2023-04-25T01:07:33;97410.16;;;8.58;77.46
77799;BME280;66989;50.426;15.352;2023-04-25T01:09:59;97408.34;;;8.59;77.33
77799;BME280;66989;50.426;15.352;2023-04-25T01:12:24;97405.72;;;8.59;77.85
77799;BME280;66989;50.426;15.352;2023-04-25T01:14:50;97406.69;;;8.58;78.03
77799;BME280;66989;50.426;15.352;2023-04-25T01:17:17;97404.88;;;8.58;78.75
77799;BME280;66989;50.426;15.352;2023-04-25T01:19:43;97410.50;;;8.53;79.96
77799;BME280;66989;50.426;15.352;2023-04-25T01:22:09;97402.88;;;8.50;81.02
77799;BME280;66989;50.426;15.352;2023-04-25T01:24:36;97404.78;;;8.48;81.73
77799;BME280;66989;50.426;15.352;2023-04-25T01:27:02;97400.59;;;8.46;82.03
77799;BME280;66989;50.426;15.352;2023-04-25T01:29:28;97396.44;;;8.43;81.52
77799;BME280;66989;50.426;15.352;2023-04-25T01:31:54;97404.34;;;8.43;81.16
77799;BME280;66989;50.426;15.352;2023-04-25T01:34:20;97394.78;;;8.42;81.26
77799;BME280;66989;50.426;15.352;2023-04-25T01:36:48;97395.84;;;8.40;81.25
77799;BME280;66989;50.426;15.352;2023-04-25T01:39:15;97393.50;;;8.37;81.78
77799;BME280;66989;50.426;15.352;2023-04-25T01:41:40;97390.88;;;8.37;81.57
77799;BME280;66989;50.426;15.352;2023-04-25T01:44:06;97393.59;;;8.35;80.96
77799;BME280;66989;50.426;15.352;2023-04-25T01:46:33;97396.22;;;8.35;80.85
77799;BME280;66989;50.426;15.352;2023-04-25T01:48:58;97393.59;;;8.35;81.27
77799;BME280;66989;50.426;15.352;2023-04-25T01:51:24;97398.84;;;8.35;81.66
77799;BME280;66989;50.426;15.352;2023-04-25T01:53:50;97398.16;;;8.33;81.46
77799;BME280;66989;50.426;15.352;2023-04-25T01:56:17;97400.78;;;8.33;81.40
77799;BME280;66989;50.426;15.352;2023-04-25T01:58:43;97399.13;;;8.32;82.04
77799;BME280;66989;50.426;15.352;2023-04-25T02:01:08;97390.41;;;8.32;82.11
77799;BME280;66989;50.426;15.352;2023-04-25T02:03:34;97394.22;;;8.27;81.88
77799;BME280;66989;50.426;15.352;2023-04-25T02:06:00;97396.03;;;8.27;82.14
77799;BME280;66989;50.426;15.352;2023-04-25T02:08:25;97388.50;;;8.22;82.07
77799;BME280;66989;50.426;15.352;2023-04-25T02:10:51;97388.88;;;8.18;82.16
77799;BME280;66989;50.426;15.352;2023-04-25T02:13:17;97390.06;;;8.14;82.14
77799;BME280;66989;50.426;15.352;2023-04-25T02:15:42;97394.75;;;8.10;82.21
77799;BME280;66989;50.426;15.352;2023-04-25T02:18:08;97392.72;;;8.03;82.19
77799;BME280;66989;50.426;15.352;2023-04-25T02:20:35;97389.63;;;7.97;82.10
77799;BME280;66989;50.426;15.352;2023-04-25T02:23:02;97381.38;;;7.91;82.16
77799;BME280;66989;50.426;15.352;2023-04-25T02:25:27;97389.00;;;7.83;82.09
77799;BME280;66989;50.426;15.352;2023-04-25T02:27:52;97387.69;;;7.77;81.63
77799;BME280;66989;50.426;15.352;2023-04-25T02:30:19;97388.19;;;7.71;81.63
77799;BME280;66989;50.426;15.352;2023-04-25T02:32:44;97380.06;;;7.63;81.77
77799;BME280;66989;50.426;15.352;2023-04-25T02:35:10;97379.72;;;7.56;82.31
77799;BME280;66989;50.426;15.352;2023-04-25T02:37:37;97372.47;;;7.48;82.55
77799;BME280;66989;50.426;15.352;2023-04-25T02:40:03;97380.91;;;7.41;82.50
77799;BME280;66989;50.426;15.352;2023-04-25T02:42:29;97382.19;;;7.35;82.71
77799;BME280;66989;50.426;15.352;2023-04-25T02:44:55;97381.13;;;7.27;83.38
77799;BME280;66989;50.426;15.352;2023-04-25T02:47:20;97381.72;;;7.19;83.87
77799;BME280;66989;50.426;15.352;2023-04-25T02:49:46;97382.19;;;7.13;83.94
77799;BME280;66989;50.426;15.352;2023-04-25T02:52:12;97380.03;;;7.07;84.21
77799;BME280;66989;50.426;15.352;2023-04-25T02:54:38;97371.78;;;7.00;84.19
77799;BME280;66989;50.426;15.352;2023-04-25T02:57:04;97387.13;;;6.93;84.25
77799;BME280;66989;50.426;15.352;2023-04-25T02:59:29;97382.44;;;6.86;85.12
77799;BME280;66989;50.426;15.352;2023-04-25T03:01:55;97378.63;;;6.79;85.03
77799;BME280;66989;50.426;15.352;2023-04-25T03:04:20;97379.09;;;6.73;85.76
77799;BME280;66989;50.426;15.352;2023-04-25T03:06:51;97383.00;;;6.67;85.48
77799;BME280;66989;50.426;15.352;2023-04-25T03:09:17;97381.69;;;6.61;86.00
77799;BME280;66989;50.426;15.352;2023-04-25T03:11:44;97377.72;;;6.56;86.10
77799;BME280;66989;50.426;15.352;2023-04-25T03:14:09;97381.63;;;6.50;86.09
77799;BME280;66989;50.426;15.352;2023-04-25T03:16:35;97375.28;;;6.41;86.32
77799;BME280;66989;50.426;15.352;2023-04-25T03:19:00;97370.50;;;6.35;86.95
77799;BME280;66989;50.426;15.352;2023-04-25T03:21:26;97376.06;;;6.31;86.32
77799;BME280;66989;50.426;15.352;2023-04-25T03:23:51;97375.69;;;6.24;86.94
77799;BME280;66989;50.426;15.352;2023-04-25T03:26:17;97378.72;;;6.18;86.64
77799;BME280;66989;50.426;15.352;2023-04-25T03:28:42;97382.63;;;6.12;86.89
77799;BME280;66989;50.426;15.352;2023-04-25T03:31:07;97374.38;;;6.06;86.98
77799;BME280;66989;50.426;15.352;2023-04-25T03:33:33;97379.09;;;6.01;87.57
77799;BME280;66989;50.426;15.352;2023-04-25T03:35:58;97382.16;;;5.95;87.57
77799;BME280;66989;50.426;15.352;2023-04-25T03:38:23;97383.44;;;5.89;87.95
77799;BME280;66989;50.426;15.352;2023-04-25T03:40:50;97388.16;;;5.84;88.32
77799;BME280;66989;50.426;15.352;2023-04-25T03:43:16;97388.47;;;5.79;88.32
77799;BME280;66989;50.426;15.352;2023-04-25T03:45:41;97379.88;;;5.77;88.64
77799;BME280;66989;50.426;15.352;2023-04-25T03:48:07;97380.94;;;5.75;88.49
77799;BME280;66989;50.426;15.352;2023-04-25T03:50:32;97380.13;;;5.74;89.11
77799;BME280;66989;50.426;15.352;2023-04-25T03:52:57;97375.09;;;5.71;89.17
77799;BME280;66989;50.426;15.352;2023-04-25T03:55:23;97371.75;;;5.69;89.19
77799;BME280;66989;50.426;15.352;2023-04-25T03:57:48;97376.97;;;5.69;89.78
77799;BME280;66989;50.426;15.352;2023-04-25T04:00:14;97382.34;;;5.68;89.54
77799;BME280;66989;50.426;15.352;2023-04-25T04:02:39;97373.66;;;5.67;90.29
77799;BME280;66989;50.426;15.352;2023-04-25T04:05:05;97378.13;;;5.65;90.28
77799;BME280;66989;50.426;15.352;2023-04-25T04:07:31;97382.66;;;5.63;90.02
77799;BME280;66989;50.426;15.352;2023-04-25T04:09:58;97391.31;;;5.63;90.57
77799;BME280;66989;50.426;15.352;2023-04-25T04:12:23;97386.22;;;5.62;90.27
77799;BME280;66989;50.426;15.352;2023-04-25T04:14:49;97390.56;;;5.61;90.28
77799;BME280;66989;50.426;15.352;2023-04-25T04:17:14;97390.69;;;5.60;90.07
77799;BME280;66989;50.426;15.352;2023-04-25T04:19:39;97396.88;;;5.59;90.24
77799;BME280;66989;50.426;15.352;2023-04-25T04:22:05;97389.03;;;5.59;90.16
77799;BME280;66989;50.426;15.352;2023-04-25T04:24:30;97390.69;;;5.60;90.17
77799;BME280;66989;50.426;15.352;2023-04-25T04:26:55;97388.09;;;5.60;90.50
77799;BME280;66989;50.426;15.352;2023-04-25T04:29:22;97390.56;;;5.61;90.37
77799;BME280;66989;50.426;15.352;2023-04-25T04:31:49;97392.28;;;5.62;90.01
77799;BME280;66989;50.426;15.352;2023-04-25T04:34:16;97400.84;;;5.64;90.50
77799;BME280;66989;50.426;15.352;2023-04-25T04:36:41;97398.09;;;5.66;89.82
77799;BME280;66989;50.426;15.352;2023-04-25T04:39:07;97391.00;;;5.68;89.78
77799;BME280;66989;50.426;15.352;2023-04-25T04:41:34;97389.09;;;5.70;89.90
77799;BME280;66989;50.426;15.352;2023-04-25T04:43:59;97403.97;;;5.70;90.19
77799;BME280;66989;50.426;15.352;2023-04-25T04:46:26;97406.47;;;5.71;90.35
77799;BME280;66989;50.426;15.352;2023-04-25T04:48:53;97396.00;;;5.71;90.03
77799;BME280;66989;50.426;15.352;2023-04-25T04:51:18;97402.69;;;5.75;90.26
77799;BME280;66989;50.426;15.352;2023-04-25T04:53:45;97394.34;;;5.83;89.63
77799;BME280;66989;50.426;15.352;2023-04-25T04:56:10;97398.88;;;5.92;89.53
77799;BME280;66989;50.426;15.352;2023-04-25T04:58:36;97400.75;;;6.03;89.34
77799;BME280;66989;50.426;15.352;2023-04-25T05:01:02;97407.81;;;6.13;88.83
77799;BME280;66989;50.426;15.352;2023-04-25T05:03:27;97406.13;;;6.25;88.48
77799;BME280;66989;50.426;15.352;2023-04-25T05:05:53;97399.06;;;6.38;88.25
77799;BME280;66989;50.426;15.352;2023-04-25T05:08:18;97394.03;;;6.59;87.62
77799;BME280;66989;50.426;15.352;2023-04-25T05:10:44;97395.09;;;6.81;86.86
77799;BME280;66989;50.426;15.352;2023-04-25T05:13:09;97388.94;;;7.04;86.41
77799;BME280;66989;50.426;15.352;2023-04-25T05:15:34;97383.72;;;7.27;85.23
77799;BME280;66989;50.426;15.352;2023-04-25T05:18:00;97386.03;;;7.54;84.14
77799;BME280;66989;50.426;15.352;2023-04-25T05:20:26;97387.97;;;7.74;82.84
77799;BME280;66989;50.426;15.352;2023-04-25T05:22:51;97386.03;;;7.98;81.89
77799;BME280;66989;50.426;15.352;2023-04-25T05:25:16;97383.03;;;8.25;81.00
77799;BME280;66989;50.426;15.352;2023-04-25T05:27:42;97381.47;;;8.55;79.24
77799;BME280;66989;50.426;15.352;2023-04-25T05:30:08;97377.44;;;8.83;78.35
77799;BME280;66989;50.426;15.352;2023-04-25T05:32:34;97367.81;;;9.14;77.38
77799;BME280;66989;50.426;15.352;2023-04-25T05:35:00;97371.03;;;9.48;76.98
77799;BME280;66989;50.426;15.352;2023-04-25T05:37:26;97362.75;;;9.83;76.00
77799;BME280;66989;50.426;15.352;2023-04-25T05:39:51;97366.16;;;10.15;74.74
77799;BME280;66989;50.426;15.352;2023-04-25T05:42:17;97369.31;;;10.49;73.35
77799;BME280;66989;50.426;15.352;2023-04-25T05:44:42;97369.16;;;10.70;71.71
77799;BME280;66989;50.426;15.352;2023-04-25T05:47:07;97371.09;;;10.77;71.54
77799;BME280;66989;50.426;15.352;2023-04-25T05:49:34;97371.66;;;10.81;71.36
77799;BME280;66989;50.426;15.352;2023-04-25T05:51:59;97370.13;;;10.78;70.62
77799;BME280;66989;50.426;15.352;2023-04-25T05:54:25;97371.66;;;10.71;70.24
77799;BME280;66989;50.426;15.352;2023-04-25T05:56:50;97376.94;;;10.71;71.16
77799;BME280;66989;50.426;15.352;2023-04-25T05:59:15;97372.63;;;10.80;71.32
77799;BME280;66989;50.426;15.352;2023-04-25T06:01:41;97371.41;;;10.84;70.04
77799;BME280;66989;50.426;15.352;2023-04-25T06:04:07;97370.13;;;10.98;69.98
77799;BME280;66989;50.426;15.352;2023-04-25T06:06:32;97369.53;;;11.13;69.04
77799;BME280;66989;50.426;15.352;2023-04-25T06:08:57;97365.88;;;11.34;68.64
77799;BME280;66989;50.426;15.352;2023-04-25T06:11:23;97364.44;;;11.59;67.97
77799;BME280;66989;50.426;15.352;2023-04-25T06:13:48;97369.84;;;11.95;67.46
77799;BME280;66989;50.426;15.352;2023-04-25T06:16:14;97373.81;;;12.36;65.93
77799;BME280;66989;50.426;15.352;2023-04-25T06:18:39;97371.72;;;12.57;63.69
77799;BME280;66989;50.426;15.352;2023-04-25T06:21:04;97366.28;;;12.59;61.75
77799;BME280;66989;50.426;15.352;2023-04-25T06:23:30;97368.97;;;12.49;61.90
77799;BME280;66989;50.426;15.352;2023-04-25T06:25:55;97367.72;;;12.53;61.13
77799;BME280;66989;50.426;15.352;2023-04-25T06:28:21;97367.25;;;12.58;61.60
77799;BME280;66989;50.426;15.352;2023-04-25T06:30:47;97360.84;;;12.60;60.71
77799;BME280;66989;50.426;15.352;2023-04-25T06:33:13;97371.97;;;12.82;60.70
77799;BME280;66989;50.426;15.352;2023-04-25T06:35:38;97361.25;;;13.09;60.04
77799;BME280;66989;50.426;15.352;2023-04-25T06:38:04;97364.09;;;13.34;58.89
77799;BME280;66989;50.426;15.352;2023-04-25T06:40:29;97361.72;;;13.48;58.42
77799;BME280;66989;50.426;15.352;2023-04-25T06:42:55;97357.53;;;13.72;56.15
77799;BME280;66989;50.426;15.352;2023-04-25T06:45:20;97355.91;;;14.13;56.55
77799;BME280;66989;50.426;15.352;2023-04-25T06:47:45;97353.50;;;14.44;54.78
77799;BME280;66989;50.426;15.352;2023-04-25T06:50:11;97354.22;;;14.71;53.03
77799;BME280;66989;50.426;15.352;2023-04-25T06:52:37;97348.78;;;15.13;51.37
77799;BME280;66989;50.426;15.352;2023-04-25T06:55:02;97351.44;;;15.21;52.06
77799;BME280;66989;50.426;15.352;2023-04-25T06:57:27;97351.28;;;15.31;49.92
77799;BME280;66989;50.426;15.352;2023-04-25T06:59:54;97351.41;;;15.38;49.09
77799;BME280;66989;50.426;15.352;2023-04-25T07:02:19;97356.44;;;15.24;49.34
77799;BME280;66989;50.426;15.352;2023-04-25T07:04:46;97355.25;;;15.19;50.40
77799;BME280;66989;50.426;15.352;2023-04-25T07:07:11;97347.09;;;14.96;51.13
77799;BME280;66989;50.426;15.352;2023-04-25T07:09:37;97356.41;;;14.84;51.78
77799;BME280;66989;50.426;15.352;2023-04-25T07:12:02;97349.75;;;14.80;52.60
77799;BME280;66989;50.426;15.352;2023-04-25T07:14:28;97353.91;;;14.74;52.96
77799;BME280;66989;50.426;15.352;2023-04-25T07:16:53;97355.19;;;14.54;52.04
77799;BME280;66989;50.426;15.352;2023-04-25T07:19:21;97351.50;;;14.38;53.66
77799;BME280;66989;50.426;15.352;2023-04-25T07:21:46;97361.25;;;14.30;52.75
77799;BME280;66989;50.426;15.352;2023-04-25T07:24:11;97359.28;;;14.32;52.55
77799;BME280;66989;50.426;15.352;2023-04-25T07:26:37;97365.59;;;14.39;51.72
77799;BME280;66989;50.426;15.352;2023-04-25T07:29:02;97363.63;;;14.41;52.01
77799;BME280;66989;50.426;15.352;2023-04-25T07:31:28;97360.47;;;14.45;52.08
77799;BME280;66989;50.426;15.352;2023-04-25T07:33:53;97359.81;;;14.43;52.99
77799;BME280;66989;50.426;15.352;2023-04-25T07:36:19;97355.38;;;14.52;52.39
77799;BME280;66989;50.426;15.352;2023-04-25T07:38:44;97358.38;;;14.90;50.47
77799;BME280;66989;50.426;15.352;2023-04-25T07:41:10;97355.22;;;15.43;49.71
77799;BME280;66989;50.426;15.352;2023-04-25T07:43:35;97347.44;;;15.97;48.60
77799;BME280;66989;50.426;15.352;2023-04-25T07:46:01;97349.03;;;16.54;47.10
77799;BME280;66989;50.426;15.352;2023-04-25T07:48:26;97347.06;;;16.94;45.46
77799;BME280;66989;50.426;15.352;2023-04-25T07:50:51;97348.13;;;17.30;44.80
77799;BME280;66989;50.426;15.352;2023-04-25T07:53:17;97339.25;;;17.30;44.44
77799;BME280;66989;50.426;15.352;2023-04-25T07:55:43;97344.09;;;17.49;43.81
77799;BME280;66989;50.426;15.352;2023-04-25T07:58:09;97344.50;;;17.76;42.28
77799;BME280;66989;50.426;15.352;2023-04-25T08:00:36;97340.91;;;18.13;41.34
77799;BME280;66989;50.426;15.352;2023-04-25T08:03:02;97335.94;;;18.10;42.20
77799;BME280;66989;50.426;15.352;2023-04-25T08:05:29;97333.28;;;17.66;41.50
77799;BME280;66989;50.426;15.352;2023-04-25T08:07:55;97347.66;;;17.42;42.38
77799;BME280;66989;50.426;15.352;2023-04-25T08:10:22;97355.13;;;16.85;42.46
77799;BME280;66989;50.426;15.352;2023-04-25T08:12:48;97351.16;;;16.58;44.29
77799;BME280;66989;50.426;15.352;2023-04-25T08:15:13;97356.28;;;16.29;44.32
77799;BME280;66989;50.426;15.352;2023-04-25T08:17:39;97355.03;;;16.17;44.95
77799;BME280;66989;50.426;15.352;2023-04-25T08:20:06;97358.88;;;16.06;45.69
77799;BME280;66989;50.426;15.352;2023-04-25T08:22:32;97358.47;;;15.86;46.48
77799;BME280;66989;50.426;15.352;2023-04-25T08:24:58;97358.25;;;15.96;46.21
77799;BME280;66989;50.426;15.352;2023-04-25T08:27:23;97355.63;;;15.79;46.15
77799;BME280;66989;50.426;15.352;2023-04-25T08:29:49;97360.53;;;15.43;46.17
77799;BME280;66989;50.426;15.352;2023-04-25T08:32:15;97353.09;;;15.22;47.61
77799;BME280;66989;50.426;15.352;2023-04-25T08:34:41;97358.06;;;14.93;48.66
77799;BME280;66989;50.426;15.352;2023-04-25T08:37:08;97362.97;;;14.55;50.44
77799;BME280;66989;50.426;15.352;2023-04-25T08:39:37;97364.44;;;14.33;51.17
77799;BME280;66989;50.426;15.352;2023-04-25T08:42:06;97370.81;;;14.06;51.87
77799;BME280;66989;50.426;15.352;2023-04-25T08:44:35;97376.50;;;13.85;53.33
77799;BME280;66989;50.426;15.352;2023-04-25T08:47:04;97378.31;;;13.59;54.57
77799;BME280;66989;50.426;15.352;2023-04-25T08:49:33;97381.25;;;13.47;55.06
77799;BME280;66989;50.426;15.352;2023-04-25T08:52:04;97383.00;;;13.39;54.82
77799;BME280;66989;50.426;15.352;2023-04-25T08:54:32;97376.63;;;13.32;55.45
77799;BME280;66989;50.426;15.352;2023-04-25T08:57:02;97390.59;;;13.16;57.44
77799;BME280;66989;50.426;15.352;2023-04-25T08:59:30;97396.13;;;13.05;57.72
77799;BME280;66989;50.426;15.352;2023-04-25T09:01:56;97393.34;;;12.88;57.85
77799;BME280;66989;50.426;15.352;2023-04-25T09:04:22;97394.41;;;12.78;57.79
77799;BME280;66989;50.426;15.352;2023-04-25T09:06:48;97395.91;;;12.62;58.94
77799;BME280;66989;50.426;15.352;2023-04-25T09:09:13;97397.50;;;12.55;59.12
77799;BME280;66989;50.426;15.352;2023-04-25T09:11:40;97396.13;;;12.51;59.60
77799;BME280;66989;50.426;15.352;2023-04-25T09:14:15;97397.63;;;12.54;59.74
77799;BME280;66989;50.426;15.352;2023-04-25T09:16:57;97399.22;;;12.64;60.20
77799;BME280;66989;50.426;15.352;2023-04-25T09:19:36;97397.06;;;12.78;59.52
77799;BME280;66989;50.426;15.352;2023-04-25T09:22:05;97405.34;;;13.01;59.52
77799;BME280;66989;50.426;15.352;2023-04-25T09:24:41;97398.53;;;13.16;58.65
77799;BME280;66989;50.426;15.352;2023-04-25T09:27:10;97398.91;;;13.47;58.50
77799;BME280;66989;50.426;15.352;2023-04-25T09:29:37;97395.66;;;13.79;55.93
77799;BME280;66989;50.426;15.352;2023-04-25T09:32:23;97388.00;;;14.02;56.68
77799;BME280;66989;50.426;15.352;2023-04-25T09:34:56;97395.38;;;14.24;55.09
77799;BME280;66989;50.426;15.352;2023-04-25T09:39:54;97392.13;;;14.39;53.40
77799;BME280;66989;50.426;15.352;2023-04-25T09:42:23;97392.94;;;14.39;53.85
77799;BME280;66989;50.426;15.352;2023-04-25T09:44:51;97390.34;;;14.47;53.88
77799;BME280;66989;50.426;15.352;2023-04-25T09:47:17;97389.22;;;14.66;52.89
77799;BME280;66989;50.426;15.352;2023-04-25T09:49:43;97390.22;;;14.73;53.26
77799;BME280;66989;50.426;15.352;2023-04-25T09:52:30;97389.91;;;14.85;52.64
77799;BME280;66989;50.426;15.352;2023-04-25T09:54:55;97388.91;;;14.86;52.97
77799;BME280;66989;50.426;15.352;2023-04-25T09:57:22;97382.63;;;14.95;52.42
77799;BME280;66989;50.426;15.352;2023-04-25T09:59:53;97380.13;;;15.10;52.29
77799;BME280;66989;50.426;15.352;2023-04-25T10:02:20;97379.47;;;15.32;52.17
77799;BME280;66989;50.426;15.352;2023-04-25T10:04:51;97383.81;;;15.49;51.48
77799;BME280;66989;50.426;15.352;2023-04-25T10:07:18;97380.94;;;15.67;50.51
77799;BME280;66989;50.426;15.352;2023-04-25T10:09:48;97381.03;;;16.38;49.89
77799;BME280;66989;50.426;15.352;2023-04-25T10:12:16;97369.97;;;16.80;48.64
77799;BME280;66989;50.426;15.352;2023-04-25T10:14:42;97368.38;;;16.94;48.19
77799;BME280;66989;50.426;15.352;2023-04-25T10:17:10;97368.31;;;17.02;47.51
77799;BME280;66989;50.426;15.352;2023-04-25T10:19:36;97372.03;;;16.93;48.07
77799;BME280;66989;50.426;15.352;2023-04-25T10:22:07;97365.03;;;17.37;47.13
77799;BME280;66989;50.426;15.352;2023-04-25T10:24:35;97359.31;;;17.78;46.23
77799;BME280;66989;50.426;15.352;2023-04-25T10:27:01;97350.81;;;18.34;43.63
77799;BME280;66989;50.426;15.352;2023-04-25T10:29:27;97340.69;;;19.30;42.62
77799;BME280;66989;50.426;15.352;2023-04-25T10:31:53;97336.38;;;20.26;40.55
77799;BME280;66989;50.426;15.352;2023-04-25T10:34:19;97345.25;;;21.81;37.37
77799;BME280;66989;50.426;15.352;2023-04-25T10:36:50;97327.34;;;23.34;34.79
77799;BME280;66989;50.426;15.352;2023-04-25T10:39:27;97320.84;;;24.28;31.05
77799;BME280;66989;50.426;15.352;2023-04-25T10:41:55;97323.16;;;25.03;30.64
77799;BME280;66989;50.426;15.352;2023-04-25T10:44:21;97315.56;;;25.35;29.95
77799;BME280;66989;50.426;15.352;2023-04-25T10:46:47;97328.94;;;24.58;29.34
77799;BME280;66989;50.426;15.352;2023-04-25T10:49:37;97326.44;;;24.08;30.94
77799;BME280;66989;50.426;15.352;2023-04-25T10:52:25;97327.88;;;22.54;33.69
77799;BME280;66989;50.426;15.352;2023-04-25T10:54:52;97332.25;;;21.58;36.12
77799;BME280;66989;50.426;15.352;2023-04-25T10:57:37;97338.88;;;19.93;37.23
77799;BME280;66989;50.426;15.352;2023-04-25T11:02:30;97348.88;;;18.64;40.32
77799;BME280;66989;50.426;15.352;2023-04-25T11:04:56;97345.47;;;18.34;41.63
77799;BME280;66989;50.426;15.352;2023-04-25T11:07:34;97348.19;;;18.04;42.16
77799;BME280;66989;50.426;15.352;2023-04-25T11:10:03;97348.09;;;17.98;41.81
77799;BME280;66989;50.426;15.352;2023-04-25T11:12:31;97344.13;;;17.79;42.34
77799;BME280;66989;50.426;15.352;2023-04-25T11:15:15;97343.72;;;17.52;43.26
77799;BME280;66989;50.426;15.352;2023-04-25T11:17:41;97349.13;;;17.06;44.26
77799;BME280;66989;50.426;15.352;2023-04-25T11:20:07;97356.16;;;16.84;45.26
77799;BME280;66989;50.426;15.352;2023-04-25T11:22:38;97354.47;;;16.61;45.99
77799;BME280;66989;50.426;15.352;2023-04-25T11:25:07;97357.94;;;16.30;46.18
77799;BME280;66989;50.426;15.352;2023-04-25T11:27:34;97368.31;;;16.17;46.34
77799;BME280;66989;50.426;15.352;2023-04-25T11:30:15;97363.09;;;15.84;47.16
77799;BME280;66989;50.426;15.352;2023-04-25T11:32:41;97366.00;;;15.58;47.55
77799;BME280;66989;50.426;15.352;2023-04-25T11:35:09;97365.88;;;15.27;49.76
77799;BME280;66989;50.426;15.352;2023-04-25T11:37:34;97368.34;;;14.96;49.78
77799;BME280;66989;50.426;15.352;2023-04-25T11:40:00;97373.44;;;14.57;50.97
77799;BME280;66989;50.426;15.352;2023-04-25T11:42:26;97366.28;;;14.49;52.58
77799;BME280;66989;50.426;15.352;2023-04-25T11:44:51;97365.34;;;14.66;51.43
77799;BME280;66989;50.426;15.352;2023-04-25T11:47:17;97356.91;;;15.44;50.21
77799;BME280;66989;50.426;15.352;2023-04-25T11:49:42;97360.75;;;15.89;49.16
77799;BME280;66989;50.426;15.352;2023-04-25T11:52:08;97354.53;;;16.13;48.24
77799;BME280;66989;50.426;15.352;2023-04-25T11:54:37;97359.31;;;16.18;47.65
77799;BME280;66989;50.426;15.352;2023-04-25T11:57:03;97356.84;;;16.16;46.88
77799;BME280;66989;50.426;15.352;2023-04-25T11:59:29;97362.38;;;16.06;46.92
77799;BME280;66989;50.426;15.352;2023-04-25T12:01:55;97359.25;;;15.95;47.61
77799;BME280;66989;50.426;15.352;2023-04-25T12:04:24;97359.97;;;15.80;48.00
77799;BME280;66989;50.426;15.352;2023-04-25T12:06:53;97354.53;;;15.66;49.04
77799;BME280;66989;50.426;15.352;2023-04-25T12:09:21;97362.00;;;15.54;48.20
77799;BME280;66989;50.426;15.352;2023-04-25T12:11:54;97366.69;;;15.44;45.17
77799;BME280;66989;50.426;15.352;2023-04-25T12:14:24;97366.06;;;15.34;46.20
77799;BME280;66989;50.426;15.352;2023-04-25T12:16:52;97370.19;;;15.28;46.21
77799;BME280;66989;50.426;15.352;2023-04-25T12:19:18;97365.34;;;15.15;46.58
77799;BME280;66989;50.426;15.352;2023-04-25T12:21:44;97365.00;;;15.02;47.57
77799;BME280;66989;50.426;15.352;2023-04-25T12:24:15;97373.66;;;14.96;49.30
77799;BME280;66989;50.426;15.352;2023-04-25T12:26:48;97375.78;;;14.76;48.69
77799;BME280;66989;50.426;15.352;2023-04-25T12:29:23;97384.03;;;14.48;48.82
77799;BME280;66989;50.426;15.352;2023-04-25T12:31:50;97375.81;;;14.17;50.32
77799;BME280;66989;50.426;15.352;2023-04-25T12:34:17;97378.56;;;13.73;51.86
77799;BME280;66989;50.426;15.352;2023-04-25T12:36:43;97380.72;;;13.44;54.28
77799;BME280;66989;50.426;15.352;2023-04-25T12:39:08;97384.38;;;13.25;53.38
77799;BME280;66989;50.426;15.352;2023-04-25T12:41:34;97387.28;;;13.14;53.66
77799;BME280;66989;50.426;15.352;2023-04-25T12:44:00;97385.38;;;13.24;53.79
77799;BME280;66989;50.426;15.352;2023-04-25T12:46:25;97393.25;;;13.42;52.91
77799;BME280;66989;50.426;15.352;2023-04-25T12:48:50;97378.53;;;13.65;52.45
77799;BME280;66989;50.426;15.352;2023-04-25T12:51:16;97378.50;;;14.34;49.16
77799;BME280;66989;50.426;15.352;2023-04-25T12:53:41;97381.94;;;15.01;46.47
77799;BME280;66989;50.426;15.352;2023-04-25T12:56:08;97373.28;;;15.64;44.82
77799;BME280;66989;50.426;15.352;2023-04-25T12:58:34;97361.59;;;15.90;43.35